sensor_id;sensor_type;location;lat;lon;timestamp;P1;durP1;ratioP1;P2;durP2;ratioP2
2257;SDS011;1136;51.574;7.706;2023-09-07T00:00:15;10.90;;;6.40;;
2257;SDS011;1136;51.574;7.706;2023-09-07T00:03:19;7.00;;;6.40;;
2257;SDS011;1136;51.574;7.706;2023-09-07T00:06:23;8.53;;;6.77;;
2257;SDS011;1136;51.574;7.706;2023-09-07T00:09:27;7.03;;;6.33;;
2257;SDS011;1136;51.574;7.706;2023-09-07T00:12:32;7.90;;;6.33;;
2257;SDS011;1136;51.574;7.706;2023-09-07T00:15:39;8.37;;;5.97;;
2257;SDS011;1136;51.574;7.706;2023-09-07T00:18:43;11.87;;;6.40;;
2257;SDS011;1136;51.574;7.706;2023-09-07T00:21:47;6.70;;;6.20;;
2257;SDS011;1136;51.574;7.706;2023-09-07T00:24:52;8.30;;;6.80;;
2257;SDS011;1136;51.574;7.706;2023-09-07T00:27:56;9.50;;;7.37;;
2257;SDS011;1136;51.574;7.706;2023-09-07T00:31:00;7.90;;;6.80;;
2257;SDS011;1136;51.574;7.706;2023-09-07T00:34:04;7.43;;;6.83;;
2257;SDS011;1136;51.574;7.706;2023-09-07T00:37:08;7.83;;;7.10;;
2257;SDS011;1136;51.574;7.706;2023-09-07T00:40:12;7.90;;;7.20;;
2257;SDS011;1136;51.574;7.706;2023-09-07T00:43:17;6.37;;;5.87;;
2257;SDS011;1136;51.574;7.706;2023-09-07T00:46:21;7.40;;;6.80;;
2257;SDS011;1136;51.574;7.706;2023-09-07T00:49:25;7.37;;;6.67;;
2257;SDS011;1136;51.574;7.706;2023-09-07T00:52:30;8.63;;;6.97;;
2257;SDS011;1136;51.574;7.706;2023-09-07T00:55:34;7.67;;;6.90;;
2257;SDS011;1136;51.574;7.706;2023-09-07T00:58:39;8.47;;;7.30;;
2257;SDS011;1136;51.574;7.706;2023-09-07T01:01:44;7.50;;;6.50;;
2257;SDS011;1136;51.574;7.706;2023-09-07T01:04:50;6.80;;;6.07;;
2257;SDS011;1136;51.574;7.706;2023-09-07T01:07:57;6.80;;;6.30;;
2257;SDS011;1136;51.574;7.706;2023-09-07T01:11:16;7.33;;;6.30;;
2257;SDS011;1136;51.574;7.706;2023-09-07T01:14:21;8.13;;;6.70;;
2257;SDS011;1136;51.574;7.706;2023-09-07T01:17:26;7.20;;;6.50;;
2257;SDS011;1136;51.574;7.706;2023-09-07T01:20:31;7.40;;;6.70;;
2257;SDS011;1136;51.574;7.706;2023-09-07T01:23:36;7.57;;;6.97;;
2257;SDS011;1136;51.574;7.706;2023-09-07T01:26:41;6.50;;;5.67;;
2257;SDS011;1136;51.574;7.706;2023-09-07T01:29:46;7.20;;;6.50;;
2257;SDS011;1136;51.574;7.706;2023-09-07T01:32:50;6.63;;;6.13;;
2257;SDS011;1136;51.574;7.706;2023-09-07T01:35:54;7.23;;;6.53;;
2257;SDS011;1136;51.574;7.706;2023-09-07T01:38:59;7.93;;;6.77;;
2257;SDS011;1136;51.574;7.706;2023-09-07T01:42:03;11.97;;;6.40;;
2257;SDS011;1136;51.574;7.706;2023-09-07T01:45:08;7.27;;;6.67;;
2257;SDS011;1136;51.574;7.706;2023-09-07T01:48:13;9.23;;;7.20;;
2257;SDS011;1136;51.574;7.706;2023-09-07T01:51:18;6.90;;;6.40;;
2257;SDS011;1136;51.574;7.706;2023-09-07T01:54:22;8.60;;;6.70;;
2257;SDS011;1136;51.574;7.706;2023-09-07T01:57:26;6.87;;;6.10;;
2257;SDS011;1136;51.574;7.706;2023-09-07T02:00:31;6.93;;;6.27;;
2257;SDS011;1136;51.574;7.706;2023-09-07T02:03:40;7.40;;;6.73;;
2257;SDS011;1136;51.574;7.706;2023-09-07T02:06:44;8.30;;;7.60;;
2257;SDS011;1136;51.574;7.706;2023-09-07T02:09:48;8.20;;;7.40;;
2257;SDS011;1136;51.574;7.706;2023-09-07T02:12:52;8.43;;;7.30;;
2257;SDS011;1136;51.574;7.706;2023-09-07T02:15:57;6.63;;;6.03;;
2257;SDS011;1136;51.574;7.706;2023-09-07T02:19:02;7.37;;;6.20;;
2257;SDS011;1136;51.574;7.706;2023-09-07T02:22:07;7.97;;;7.20;;
2257;SDS011;1136;51.574;7.706;2023-09-07T02:25:11;7.27;;;6.57;;
2257;SDS011;1136;51.574;7.706;2023-09-07T02:28:15;7.50;;;6.87;;
2257;SDS011;1136;51.574;7.706;2023-09-07T02:31:20;7.10;;;6.40;;
2257;SDS011;1136;51.574;7.706;2023-09-07T02:34:24;7.07;;;6.57;;
2257;SDS011;1136;51.574;7.706;2023-09-07T02:37:29;7.73;;;6.90;;
2257;SDS011;1136;51.574;7.706;2023-09-07T02:40:32;7.23;;;6.63;;
2257;SDS011;1136;51.574;7.706;2023-09-07T02:43:37;7.53;;;7.03;;
2257;SDS011;1136;51.574;7.706;2023-09-07T02:46:41;9.47;;;6.93;;
2257;SDS011;1136;51.574;7.706;2023-09-07T02:49:45;8.33;;;7.57;;
2257;SDS011;1136;51.574;7.706;2023-09-07T02:52:49;7.63;;;7.03;;
2257;SDS011;1136;51.574;7.706;2023-09-07T02:55:53;7.73;;;7.03;;
2257;SDS011;1136;51.574;7.706;2023-09-07T02:58:57;7.73;;;6.97;;
2257;SDS011;1136;51.574;7.706;2023-09-07T03:02:01;7.57;;;6.93;;
2257;SDS011;1136;51.574;7.706;2023-09-07T03:05:06;7.60;;;7.00;;
2257;SDS011;1136;51.574;7.706;2023-09-07T03:08:10;7.00;;;6.50;;
2257;SDS011;1136;51.574;7.706;2023-09-07T03:11:15;7.83;;;7.03;;
2257;SDS011;1136;51.574;7.706;2023-09-07T03:14:19;7.50;;;6.80;;
2257;SDS011;1136;51.574;7.706;2023-09-07T03:17:23;7.47;;;6.80;;
2257;SDS011;1136;51.574;7.706;2023-09-07T03:20:28;7.43;;;6.83;;
2257;SDS011;1136;51.574;7.706;2023-09-07T03:23:32;8.03;;;7.20;;
2257;SDS011;1136;51.574;7.706;2023-09-07T03:26:37;10.40;;;7.53;;
2257;SDS011;1136;51.574;7.706;2023-09-07T03:29:41;9.07;;;7.57;;
2257;SDS011;1136;51.574;7.706;2023-09-07T03:32:48;9.13;;;7.80;;
2257;SDS011;1136;51.574;7.706;2023-09-07T03:35:52;7.67;;;6.97;;
2257;SDS011;1136;51.574;7.706;2023-09-07T03:38:57;7.63;;;6.80;;
2257;SDS011;1136;51.574;7.706;2023-09-07T03:42:01;10.00;;;7.53;;
2257;SDS011;1136;51.574;7.706;2023-09-07T03:45:05;8.37;;;7.47;;
2257;SDS011;1136;51.574;7.706;2023-09-07T03:48:09;8.23;;;7.40;;
2257;SDS011;1136;51.574;7.706;2023-09-07T03:51:14;8.30;;;7.50;;
2257;SDS011;1136;51.574;7.706;2023-09-07T03:54:18;7.57;;;6.77;;
2257;SDS011;1136;51.574;7.706;2023-09-07T03:57:22;8.97;;;8.10;;
2257;SDS011;1136;51.574;7.706;2023-09-07T04:00:27;11.03;;;9.20;;
2257;SDS011;1136;51.574;7.706;2023-09-07T04:03:31;10.73;;;8.43;;
2257;SDS011;1136;51.574;7.706;2023-09-07T04:06:37;9.27;;;8.00;;
2257;SDS011;1136;51.574;7.706;2023-09-07T04:09:41;9.30;;;8.33;;
2257;SDS011;1136;51.574;7.706;2023-09-07T04:12:47;8.53;;;7.73;;
2257;SDS011;1136;51.574;7.706;2023-09-07T04:15:51;11.70;;;10.70;;
2257;SDS011;1136;51.574;7.706;2023-09-07T04:18:55;12.23;;;9.10;;
2257;SDS011;1136;51.574;7.706;2023-09-07T04:22:00;9.37;;;8.57;;
2257;SDS011;1136;51.574;7.706;2023-09-07T04:25:04;12.13;;;8.17;;
2257;SDS011;1136;51.574;7.706;2023-09-07T04:28:09;9.70;;;8.80;;
2257;SDS011;1136;51.574;7.706;2023-09-07T04:31:13;10.57;;;8.97;;
2257;SDS011;1136;51.574;7.706;2023-09-07T04:34:17;8.13;;;7.27;;
2257;SDS011;1136;51.574;7.706;2023-09-07T04:37:22;9.40;;;8.60;;
2257;SDS011;1136;51.574;7.706;2023-09-07T04:40:27;14.87;;;9.00;;
2257;SDS011;1136;51.574;7.706;2023-09-07T04:43:31;10.00;;;9.03;;
2257;SDS011;1136;51.574;7.706;2023-09-07T04:46:35;9.30;;;8.40;;
2257;SDS011;1136;51.574;7.706;2023-09-07T04:49:39;8.87;;;8.07;;
2257;SDS011;1136;51.574;7.706;2023-09-07T04:52:43;13.63;;;9.60;;
2257;SDS011;1136;51.574;7.706;2023-09-07T04:55:48;12.27;;;9.20;;
2257;SDS011;1136;51.574;7.706;2023-09-07T04:58:52;13.13;;;10.03;;
2257;SDS011;1136;51.574;7.706;2023-09-07T05:01:58;9.57;;;8.77;;
2257;SDS011;1136;51.574;7.706;2023-09-07T05:05:04;9.97;;;9.10;;
2257;SDS011;1136;51.574;7.706;2023-09-07T05:08:09;11.97;;;10.87;;
2257;SDS011;1136;51.574;7.706;2023-09-07T05:11:13;11.00;;;9.80;;
2257;SDS011;1136;51.574;7.706;2023-09-07T05:14:18;12.20;;;11.20;;
2257;SDS011;1136;51.574;7.706;2023-09-07T05:17:22;11.67;;;10.47;;
2257;SDS011;1136;51.574;7.706;2023-09-07T05:20:29;12.93;;;11.10;;
2257;SDS011;1136;51.574;7.706;2023-09-07T05:23:34;11.20;;;9.73;;
2257;SDS011;1136;51.574;7.706;2023-09-07T05:26:38;9.97;;;9.07;;
2257;SDS011;1136;51.574;7.706;2023-09-07T05:29:43;11.80;;;10.70;;
2257;SDS011;1136;51.574;7.706;2023-09-07T05:32:47;10.77;;;9.60;;
2257;SDS011;1136;51.574;7.706;2023-09-07T05:35:51;18.00;;;9.90;;
2257;SDS011;1136;51.574;7.706;2023-09-07T05:38:55;15.20;;;10.43;;
2257;SDS011;1136;51.574;7.706;2023-09-07T05:41:59;13.43;;;10.50;;
2257;SDS011;1136;51.574;7.706;2023-09-07T05:45:03;15.70;;;10.50;;
2257;SDS011;1136;51.574;7.706;2023-09-07T05:48:08;10.93;;;9.67;;
2257;SDS011;1136;51.574;7.706;2023-09-07T05:51:12;12.27;;;9.20;;
2257;SDS011;1136;51.574;7.706;2023-09-07T05:54:17;12.93;;;8.93;;
2257;SDS011;1136;51.574;7.706;2023-09-07T05:57:21;9.47;;;8.60;;
2257;SDS011;1136;51.574;7.706;2023-09-07T06:00:25;9.53;;;8.73;;
2257;SDS011;1136;51.574;7.706;2023-09-07T06:03:29;13.67;;;9.10;;
2257;SDS011;1136;51.574;7.706;2023-09-07T06:06:33;8.63;;;7.83;;
2257;SDS011;1136;51.574;7.706;2023-09-07T06:09:38;13.87;;;8.43;;
2257;SDS011;1136;51.574;7.706;2023-09-07T06:12:42;11.73;;;7.43;;
2257;SDS011;1136;51.574;7.706;2023-09-07T06:15:46;11.87;;;8.27;;
2257;SDS011;1136;51.574;7.706;2023-09-07T06:18:50;9.40;;;8.50;;
2257;SDS011;1136;51.574;7.706;2023-09-07T06:21:54;12.13;;;9.20;;
2257;SDS011;1136;51.574;7.706;2023-09-07T06:24:59;9.83;;;7.90;;
2257;SDS011;1136;51.574;7.706;2023-09-07T06:28:03;7.80;;;7.10;;
2257;SDS011;1136;51.574;7.706;2023-09-07T06:31:07;10.20;;;8.33;;
2257;SDS011;1136;51.574;7.706;2023-09-07T06:34:12;9.50;;;8.60;;
2257;SDS011;1136;51.574;7.706;2023-09-07T06:37:16;9.53;;;8.63;;
2257;SDS011;1136;51.574;7.706;2023-09-07T06:40:21;12.93;;;8.70;;
2257;SDS011;1136;51.574;7.706;2023-09-07T06:43:25;11.50;;;8.23;;
2257;SDS011;1136;51.574;7.706;2023-09-07T06:46:29;9.60;;;8.40;;
2257;SDS011;1136;51.574;7.706;2023-09-07T06:49:34;9.07;;;8.27;;
2257;SDS011;1136;51.574;7.706;2023-09-07T06:52:38;9.87;;;8.10;;
2257;SDS011;1136;51.574;7.706;2023-09-07T06:55:42;12.53;;;8.47;;
2257;SDS011;1136;51.574;7.706;2023-09-07T06:58:47;8.50;;;7.70;;
2257;SDS011;1136;51.574;7.706;2023-09-07T07:01:51;10.50;;;7.93;;
2257;SDS011;1136;51.574;7.706;2023-09-07T07:04:55;12.30;;;8.50;;
2257;SDS011;1136;51.574;7.706;2023-09-07T07:07:59;13.53;;;8.60;;
2257;SDS011;1136;51.574;7.706;2023-09-07T07:11:03;12.77;;;9.73;;
2257;SDS011;1136;51.574;7.706;2023-09-07T07:14:08;8.97;;;7.40;;
2257;SDS011;1136;51.574;7.706;2023-09-07T07:17:14;8.90;;;8.00;;
2257;SDS011;1136;51.574;7.706;2023-09-07T07:20:18;8.83;;;7.93;;
2257;SDS011;1136;51.574;7.706;2023-09-07T07:23:22;8.97;;;8.10;;
2257;SDS011;1136;51.574;7.706;2023-09-07T07:26:26;14.77;;;9.13;;
2257;SDS011;1136;51.574;7.706;2023-09-07T07:29:30;19.20;;;9.33;;
2257;SDS011;1136;51.574;7.706;2023-09-07T07:32:36;12.27;;;7.57;;
2257;SDS011;1136;51.574;7.706;2023-09-07T07:35:41;11.67;;;7.13;;
2257;SDS011;1136;51.574;7.706;2023-09-07T07:38:45;9.77;;;6.70;;
2257;SDS011;1136;51.574;7.706;2023-09-07T07:41:49;9.00;;;7.17;;
2257;SDS011;1136;51.574;7.706;2023-09-07T07:44:53;10.70;;;6.70;;
2257;SDS011;1136;51.574;7.706;2023-09-07T07:47:58;8.80;;;7.70;;
2257;SDS011;1136;51.574;7.706;2023-09-07T07:51:03;15.90;;;7.33;;
2257;SDS011;1136;51.574;7.706;2023-09-07T07:54:10;9.83;;;8.93;;
2257;SDS011;1136;51.574;7.706;2023-09-07T07:57:14;9.60;;;8.30;;
2257;SDS011;1136;51.574;7.706;2023-09-07T08:00:19;16.50;;;8.83;;
2257;SDS011;1136;51.574;7.706;2023-09-07T08:03:23;10.03;;;7.97;;
2257;SDS011;1136;51.574;7.706;2023-09-07T08:06:28;9.43;;;7.87;;
2257;SDS011;1136;51.574;7.706;2023-09-07T08:09:32;10.13;;;8.30;;
2257;SDS011;1136;51.574;7.706;2023-09-07T08:12:37;15.10;;;7.90;;
2257;SDS011;1136;51.574;7.706;2023-09-07T08:15:41;10.00;;;7.50;;
2257;SDS011;1136;51.574;7.706;2023-09-07T08:18:46;8.80;;;8.00;;
2257;SDS011;1136;51.574;7.706;2023-09-07T08:21:51;8.20;;;7.43;;
2257;SDS011;1136;51.574;7.706;2023-09-07T08:24:55;13.93;;;8.20;;
2257;SDS011;1136;51.574;7.706;2023-09-07T08:27:59;9.03;;;8.00;;
2257;SDS011;1136;51.574;7.706;2023-09-07T08:31:03;11.43;;;9.70;;
2257;SDS011;1136;51.574;7.706;2023-09-07T08:34:09;9.77;;;8.60;;
2257;SDS011;1136;51.574;7.706;2023-09-07T08:37:13;11.00;;;8.50;;
2257;SDS011;1136;51.574;7.706;2023-09-07T08:40:17;9.73;;;8.80;;
2257;SDS011;1136;51.574;7.706;2023-09-07T08:43:22;8.33;;;7.40;;
2257;SDS011;1136;51.574;7.706;2023-09-07T08:46:26;8.53;;;7.53;;
2257;SDS011;1136;51.574;7.706;2023-09-07T08:49:31;10.33;;;7.80;;
2257;SDS011;1136;51.574;7.706;2023-09-07T08:52:36;9.23;;;8.10;;
2257;SDS011;1136;51.574;7.706;2023-09-07T08:55:40;10.03;;;8.00;;
2257;SDS011;1136;51.574;7.706;2023-09-07T08:58:45;7.70;;;7.00;;
2257;SDS011;1136;51.574;7.706;2023-09-07T09:01:49;8.67;;;7.77;;
2257;SDS011;1136;51.574;7.706;2023-09-07T09:04:53;8.20;;;7.40;;
2257;SDS011;1136;51.574;7.706;2023-09-07T09:08:01;8.40;;;7.00;;
2257;SDS011;1136;51.574;7.706;2023-09-07T09:11:11;8.70;;;7.50;;
2257;SDS011;1136;51.574;7.706;2023-09-07T09:14:19;8.00;;;7.20;;
2257;SDS011;1136;51.574;7.706;2023-09-07T09:17:24;8.57;;;7.73;;
2257;SDS011;1136;51.574;7.706;2023-09-07T09:20:29;16.43;;;9.33;;
2257;SDS011;1136;51.574;7.706;2023-09-07T09:23:33;9.60;;;8.70;;
2257;SDS011;1136;51.574;7.706;2023-09-07T09:26:39;8.53;;;7.70;;
2257;SDS011;1136;51.574;7.706;2023-09-07T09:29:43;8.47;;;7.67;;
2257;SDS011;1136;51.574;7.706;2023-09-07T09:32:48;6.70;;;6.20;;
2257;SDS011;1136;51.574;7.706;2023-09-07T09:35:55;6.50;;;5.70;;
2257;SDS011;1136;51.574;7.706;2023-09-07T09:39:00;9.87;;;6.97;;
2257;SDS011;1136;51.574;7.706;2023-09-07T09:42:04;11.10;;;7.07;;
2257;SDS011;1136;51.574;7.706;2023-09-07T09:45:09;7.63;;;7.13;;
2257;SDS011;1136;51.574;7.706;2023-09-07T09:48:14;7.17;;;6.37;;
2257;SDS011;1136;51.574;7.706;2023-09-07T09:51:18;6.77;;;6.17;;
2257;SDS011;1136;51.574;7.706;2023-09-07T09:54:22;8.07;;;7.27;;
2257;SDS011;1136;51.574;7.706;2023-09-07T09:57:27;6.28;;;5.88;;
2257;SDS011;1136;51.574;7.706;2023-09-07T10:00:34;6.97;;;6.30;;
2257;SDS011;1136;51.574;7.706;2023-09-07T10:03:42;7.47;;;6.97;;
2257;SDS011;1136;51.574;7.706;2023-09-07T10:06:55;7.78;;;7.38;;
2257;SDS011;1136;51.574;7.706;2023-09-07T10:10:03;7.63;;;6.60;;
2257;SDS011;1136;51.574;7.706;2023-09-07T10:13:07;7.95;;;7.35;;
2257;SDS011;1136;51.574;7.706;2023-09-07T10:16:11;6.88;;;6.38;;
2257;SDS011;1136;51.574;7.706;2023-09-07T10:19:16;7.53;;;7.03;;
2257;SDS011;1136;51.574;7.706;2023-09-07T10:22:21;7.45;;;6.47;;
2257;SDS011;1136;51.574;7.706;2023-09-07T10:25:29;7.32;;;6.82;;
2257;SDS011;1136;51.574;7.706;2023-09-07T10:28:34;7.97;;;7.32;;
2257;SDS011;1136;51.574;7.706;2023-09-07T10:31:38;7.30;;;6.78;;
2257;SDS011;1136;51.574;7.706;2023-09-07T10:34:59;7.18;;;6.78;;
2257;SDS011;1136;51.574;7.706;2023-09-07T10:38:03;7.40;;;6.90;;
2257;SDS011;1136;51.574;7.706;2023-09-07T10:41:07;7.63;;;7.03;;
2257;SDS011;1136;51.574;7.706;2023-09-07T10:44:12;7.88;;;7.28;;
2257;SDS011;1136;51.574;7.706;2023-09-07T10:47:17;7.25;;;6.75;;
2257;SDS011;1136;51.574;7.706;2023-09-07T10:50:21;7.63;;;7.13;;
2257;SDS011;1136;51.574;7.706;2023-09-07T10:53:28;7.50;;;6.85;;
2257;SDS011;1136;51.574;7.706;2023-09-07T10:56:34;8.82;;;8.02;;
2257;SDS011;1136;51.574;7.706;2023-09-07T10:59:44;7.60;;;7.10;;
2257;SDS011;1136;51.574;7.706;2023-09-07T11:02:48;7.22;;;6.65;;
2257;SDS011;1136;51.574;7.706;2023-09-07T11:06:16;6.45;;;6.15;;
2257;SDS011;1136;51.574;7.706;2023-09-07T11:09:19;7.30;;;6.32;;
2257;SDS011;1136;51.574;7.706;2023-09-07T11:12:26;6.32;;;6.00;;
2257;SDS011;1136;51.574;7.706;2023-09-07T11:15:31;6.22;;;5.90;;
2257;SDS011;1136;51.574;7.706;2023-09-07T11:18:36;6.25;;;5.93;;
2257;SDS011;1136;51.574;7.706;2023-09-07T11:21:40;6.63;;;6.18;;
2257;SDS011;1136;51.574;7.706;2023-09-07T11:24:44;7.38;;;6.63;;
2257;SDS011;1136;51.574;7.706;2023-09-07T11:27:50;6.72;;;6.32;;
2257;SDS011;1136;51.574;7.706;2023-09-07T11:30:58;6.47;;;6.18;;
2257;SDS011;1136;51.574;7.706;2023-09-07T11:34:03;6.75;;;6.45;;
2257;SDS011;1136;51.574;7.706;2023-09-07T11:37:12;6.97;;;6.57;;
2257;SDS011;1136;51.574;7.706;2023-09-07T11:40:16;6.25;;;5.85;;
2257;SDS011;1136;51.574;7.706;2023-09-07T11:43:21;6.45;;;5.85;;
2257;SDS011;1136;51.574;7.706;2023-09-07T11:46:26;9.18;;;6.03;;
2257;SDS011;1136;51.574;7.706;2023-09-07T11:49:31;6.70;;;6.20;;
2257;SDS011;1136;51.574;7.706;2023-09-07T11:52:36;7.63;;;7.13;;
2257;SDS011;1136;51.574;7.706;2023-09-07T11:55:40;8.23;;;6.10;;
2257;SDS011;1136;51.574;7.706;2023-09-07T11:58:47;6.15;;;5.75;;
2257;SDS011;1136;51.574;7.706;2023-09-07T12:01:52;6.20;;;5.70;;
2257;SDS011;1136;51.574;7.706;2023-09-07T12:04:57;7.90;;;6.60;;
2257;SDS011;1136;51.574;7.706;2023-09-07T12:08:05;7.95;;;5.90;;
2257;SDS011;1136;51.574;7.706;2023-09-07T12:11:09;6.75;;;6.05;;
2257;SDS011;1136;51.574;7.706;2023-09-07T12:14:14;6.50;;;5.87;;
2257;SDS011;1136;51.574;7.706;2023-09-07T12:17:18;7.63;;;5.43;;
2257;SDS011;1136;51.574;7.706;2023-09-07T12:20:23;5.93;;;5.53;;
2257;SDS011;1136;51.574;7.706;2023-09-07T12:23:28;5.97;;;5.47;;
2257;SDS011;1136;51.574;7.706;2023-09-07T12:26:33;5.73;;;5.23;;
2257;SDS011;1136;51.574;7.706;2023-09-07T12:29:37;5.43;;;4.93;;
2257;SDS011;1136;51.574;7.706;2023-09-07T12:32:41;5.70;;;5.20;;
2257;SDS011;1136;51.574;7.706;2023-09-07T12:35:45;5.53;;;5.03;;
2257;SDS011;1136;51.574;7.706;2023-09-07T12:38:50;5.70;;;5.30;;
2257;SDS011;1136;51.574;7.706;2023-09-07T12:41:54;9.73;;;5.80;;
2257;SDS011;1136;51.574;7.706;2023-09-07T12:44:58;5.57;;;5.20;;
2257;SDS011;1136;51.574;7.706;2023-09-07T12:48:02;5.07;;;4.57;;
2257;SDS011;1136;51.574;7.706;2023-09-07T12:51:07;5.03;;;4.60;;
2257;SDS011;1136;51.574;7.706;2023-09-07T12:54:12;5.20;;;4.80;;
2257;SDS011;1136;51.574;7.706;2023-09-07T12:57:16;5.13;;;4.73;;
2257;SDS011;1136;51.574;7.706;2023-09-07T13:00:20;5.10;;;4.70;;
2257;SDS011;1136;51.574;7.706;2023-09-07T13:03:24;5.23;;;4.73;;
2257;SDS011;1136;51.574;7.706;2023-09-07T13:06:28;5.90;;;5.40;;
2257;SDS011;1136;51.574;7.706;2023-09-07T13:09:33;4.83;;;4.50;;
2257;SDS011;1136;51.574;7.706;2023-09-07T13:12:37;4.77;;;4.47;;
2257;SDS011;1136;51.574;7.706;2023-09-07T13:15:41;5.33;;;4.93;;
2257;SDS011;1136;51.574;7.706;2023-09-07T13:18:45;4.27;;;3.93;;
2257;SDS011;1136;51.574;7.706;2023-09-07T13:21:49;7.10;;;4.90;;
2257;SDS011;1136;51.574;7.706;2023-09-07T13:24:54;5.13;;;4.50;;
2257;SDS011;1136;51.574;7.706;2023-09-07T13:27:58;5.27;;;4.87;;
2257;SDS011;1136;51.574;7.706;2023-09-07T13:31:04;5.00;;;4.50;;
2257;SDS011;1136;51.574;7.706;2023-09-07T13:34:08;5.60;;;4.43;;
2257;SDS011;1136;51.574;7.706;2023-09-07T13:37:12;6.43;;;5.00;;
2257;SDS011;1136;51.574;7.706;2023-09-07T13:40:17;5.97;;;5.00;;
2257;SDS011;1136;51.574;7.706;2023-09-07T13:43:23;5.10;;;4.70;;
2257;SDS011;1136;51.574;7.706;2023-09-07T13:46:27;6.60;;;4.67;;
2257;SDS011;1136;51.574;7.706;2023-09-07T13:49:31;4.93;;;4.53;;
2257;SDS011;1136;51.574;7.706;2023-09-07T13:52:35;5.00;;;4.70;;
2257;SDS011;1136;51.574;7.706;2023-09-07T13:55:40;4.30;;;3.90;;
2257;SDS011;1136;51.574;7.706;2023-09-07T13:58:46;5.90;;;4.73;;
2257;SDS011;1136;51.574;7.706;2023-09-07T14:01:50;4.60;;;4.23;;
2257;SDS011;1136;51.574;7.706;2023-09-07T14:04:55;5.00;;;4.70;;
2257;SDS011;1136;51.574;7.706;2023-09-07T14:07:59;6.50;;;3.87;;
2257;SDS011;1136;51.574;7.706;2023-09-07T14:11:04;5.23;;;4.20;;
2257;SDS011;1136;51.574;7.706;2023-09-07T14:14:08;7.30;;;4.70;;
2257;SDS011;1136;51.574;7.706;2023-09-07T14:17:12;7.20;;;4.80;;
2257;SDS011;1136;51.574;7.706;2023-09-07T14:20:16;5.17;;;4.67;;
2257;SDS011;1136;51.574;7.706;2023-09-07T14:23:20;5.07;;;4.67;;
2257;SDS011;1136;51.574;7.706;2023-09-07T14:26:25;5.27;;;4.77;;
2257;SDS011;1136;51.574;7.706;2023-09-07T14:29:29;4.70;;;4.40;;
2257;SDS011;1136;51.574;7.706;2023-09-07T14:32:34;5.30;;;4.77;;
2257;SDS011;1136;51.574;7.706;2023-09-07T14:35:38;5.60;;;5.00;;
2257;SDS011;1136;51.574;7.706;2023-09-07T14:38:43;4.80;;;4.50;;
2257;SDS011;1136;51.574;7.706;2023-09-07T14:41:49;4.83;;;4.53;;
2257;SDS011;1136;51.574;7.706;2023-09-07T14:44:56;5.17;;;4.77;;
2257;SDS011;1136;51.574;7.706;2023-09-07T14:48:04;5.10;;;4.60;;
2257;SDS011;1136;51.574;7.706;2023-09-07T14:51:08;4.80;;;4.40;;
2257;SDS011;1136;51.574;7.706;2023-09-07T14:54:13;9.07;;;4.20;;
2257;SDS011;1136;51.574;7.706;2023-09-07T14:57:17;5.17;;;4.57;;
2257;SDS011;1136;51.574;7.706;2023-09-07T15:00:22;5.60;;;4.50;;
2257;SDS011;1136;51.574;7.706;2023-09-07T15:03:26;5.00;;;4.70;;
2257;SDS011;1136;51.574;7.706;2023-09-07T15:06:30;5.93;;;4.40;;
2257;SDS011;1136;51.574;7.706;2023-09-07T15:09:37;4.73;;;4.13;;
2257;SDS011;1136;51.574;7.706;2023-09-07T15:12:41;4.67;;;4.20;;
2257;SDS011;1136;51.574;7.706;2023-09-07T15:15:45;6.10;;;5.50;;
2257;SDS011;1136;51.574;7.706;2023-09-07T15:18:49;4.90;;;4.60;;
2257;SDS011;1136;51.574;7.706;2023-09-07T15:21:55;6.53;;;4.50;;
2257;SDS011;1136;51.574;7.706;2023-09-07T15:24:59;5.03;;;3.90;;
2257;SDS011;1136;51.574;7.706;2023-09-07T15:28:04;4.87;;;4.43;;
2257;SDS011;1136;51.574;7.706;2023-09-07T15:31:13;5.03;;;4.73;;
2257;SDS011;1136;51.574;7.706;2023-09-07T15:34:17;11.13;;;5.60;;
2257;SDS011;1136;51.574;7.706;2023-09-07T15:37:22;5.33;;;4.90;;
2257;SDS011;1136;51.574;7.706;2023-09-07T15:40:26;5.17;;;4.60;;
2257;SDS011;1136;51.574;7.706;2023-09-07T15:43:30;6.53;;;4.63;;
2257;SDS011;1136;51.574;7.706;2023-09-07T15:46:35;7.50;;;4.90;;
2257;SDS011;1136;51.574;7.706;2023-09-07T15:49:41;7.43;;;4.50;;
2257;SDS011;1136;51.574;7.706;2023-09-07T15:52:48;4.53;;;4.30;;
2257;SDS011;1136;51.574;7.706;2023-09-07T15:55:52;5.40;;;4.90;;
2257;SDS011;1136;51.574;7.706;2023-09-07T15:58:57;5.13;;;4.13;;
2257;SDS011;1136;51.574;7.706;2023-09-07T16:02:02;11.20;;;4.63;;
2257;SDS011;1136;51.574;7.706;2023-09-07T16:05:07;4.80;;;4.50;;
2257;SDS011;1136;51.574;7.706;2023-09-07T16:08:11;4.53;;;4.23;;
2257;SDS011;1136;51.574;7.706;2023-09-07T16:11:15;6.17;;;5.57;;
2257;SDS011;1136;51.574;7.706;2023-09-07T16:14:19;5.30;;;4.57;;
2257;SDS011;1136;51.574;7.706;2023-09-07T16:17:24;5.90;;;5.20;;
2257;SDS011;1136;51.574;7.706;2023-09-07T16:20:28;7.00;;;5.03;;
2257;SDS011;1136;51.574;7.706;2023-09-07T16:23:32;5.30;;;4.90;;
2257;SDS011;1136;51.574;7.706;2023-09-07T16:26:37;4.63;;;4.33;;
2257;SDS011;1136;51.574;7.706;2023-09-07T16:29:41;5.83;;;5.33;;
2257;SDS011;1136;51.574;7.706;2023-09-07T16:32:47;5.70;;;5.30;;
2257;SDS011;1136;51.574;7.706;2023-09-07T16:35:51;5.67;;;5.17;;
2257;SDS011;1136;51.574;7.706;2023-09-07T16:38:55;6.00;;;5.50;;
2257;SDS011;1136;51.574;7.706;2023-09-07T16:41:59;6.37;;;5.23;;
2257;SDS011;1136;51.574;7.706;2023-09-07T16:45:03;5.53;;;5.03;;
2257;SDS011;1136;51.574;7.706;2023-09-07T16:48:08;6.43;;;5.13;;
2257;SDS011;1136;51.574;7.706;2023-09-07T16:51:12;5.50;;;5.00;;
2257;SDS011;1136;51.574;7.706;2023-09-07T16:54:16;5.00;;;4.60;;
2257;SDS011;1136;51.574;7.706;2023-09-07T16:57:21;5.40;;;4.90;;
2257;SDS011;1136;51.574;7.706;2023-09-07T17:00:25;5.03;;;4.73;;
2257;SDS011;1136;51.574;7.706;2023-09-07T17:03:29;7.87;;;4.93;;
2257;SDS011;1136;51.574;7.706;2023-09-07T17:06:34;6.77;;;4.93;;
2257;SDS011;1136;51.574;7.706;2023-09-07T17:09:38;6.63;;;4.73;;
2257;SDS011;1136;51.574;7.706;2023-09-07T17:12:43;5.03;;;4.60;;
2257;SDS011;1136;51.574;7.706;2023-09-07T17:15:50;4.80;;;4.40;;
2257;SDS011;1136;51.574;7.706;2023-09-07T17:18:54;5.07;;;4.77;;
2257;SDS011;1136;51.574;7.706;2023-09-07T17:22:00;7.80;;;5.03;;
2257;SDS011;1136;51.574;7.706;2023-09-07T17:25:04;5.53;;;5.03;;
2257;SDS011;1136;51.574;7.706;2023-09-07T17:28:08;5.63;;;5.07;;
2257;SDS011;1136;51.574;7.706;2023-09-07T17:31:16;5.40;;;4.80;;
2257;SDS011;1136;51.574;7.706;2023-09-07T17:34:22;4.90;;;4.43;;
2257;SDS011;1136;51.574;7.706;2023-09-07T17:37:27;5.40;;;4.67;;
2257;SDS011;1136;51.574;7.706;2023-09-07T17:40:30;6.63;;;5.10;;
2257;SDS011;1136;51.574;7.706;2023-09-07T17:43:34;5.63;;;5.10;;
2257;SDS011;1136;51.574;7.706;2023-09-07T17:46:39;5.30;;;4.80;;
2257;SDS011;1136;51.574;7.706;2023-09-07T17:49:44;5.07;;;4.57;;
2257;SDS011;1136;51.574;7.706;2023-09-07T17:52:48;6.60;;;4.43;;
2257;SDS011;1136;51.574;7.706;2023-09-07T17:55:52;5.83;;;5.20;;
2257;SDS011;1136;51.574;7.706;2023-09-07T17:58:57;4.77;;;4.37;;
2257;SDS011;1136;51.574;7.706;2023-09-07T18:02:01;5.27;;;4.67;;
2257;SDS011;1136;51.574;7.706;2023-09-07T18:05:05;5.30;;;4.90;;
2257;SDS011;1136;51.574;7.706;2023-09-07T18:08:10;5.63;;;5.13;;
2257;SDS011;1136;51.574;7.706;2023-09-07T18:11:14;5.60;;;5.10;;
2257;SDS011;1136;51.574;7.706;2023-09-07T18:14:22;4.93;;;4.53;;
2257;SDS011;1136;51.574;7.706;2023-09-07T18:17:28;8.17;;;4.70;;
2257;SDS011;1136;51.574;7.706;2023-09-07T18:20:32;5.10;;;4.70;;
2257;SDS011;1136;51.574;7.706;2023-09-07T18:23:36;6.13;;;5.40;;
2257;SDS011;1136;51.574;7.706;2023-09-07T18:26:41;6.47;;;5.30;;
2257;SDS011;1136;51.574;7.706;2023-09-07T18:29:50;5.53;;;5.13;;
2257;SDS011;1136;51.574;7.706;2023-09-07T18:32:54;6.70;;;5.20;;
2257;SDS011;1136;51.574;7.706;2023-09-07T18:36:00;6.00;;;5.40;;
2257;SDS011;1136;51.574;7.706;2023-09-07T18:39:05;6.20;;;5.60;;
2257;SDS011;1136;51.574;7.706;2023-09-07T18:42:09;5.77;;;5.20;;
2257;SDS011;1136;51.574;7.706;2023-09-07T18:45:14;5.77;;;5.37;;
2257;SDS011;1136;51.574;7.706;2023-09-07T18:48:18;7.00;;;6.40;;
2257;SDS011;1136;51.574;7.706;2023-09-07T18:51:23;6.33;;;5.70;;
2257;SDS011;1136;51.574;7.706;2023-09-07T18:54:27;5.90;;;5.30;;
2257;SDS011;1136;51.574;7.706;2023-09-07T18:57:31;9.53;;;4.70;;
2257;SDS011;1136;51.574;7.706;2023-09-07T19:00:36;6.03;;;4.87;;
2257;SDS011;1136;51.574;7.706;2023-09-07T19:03:50;4.97;;;4.57;;